sensor_id;sensor_type;location;lat;lon;timestamp;temperature;humidity
24207;DHT22;12351;52.284;9.160;2024-01-27T00:01:43;5.50;99.90
24207;DHT22;12351;52.284;9.160;2024-01-27T00:04:30;5.50;99.90
24207;DHT22;12351;52.284;9.160;2024-01-27T00:07:18;5.50;99.90
24207;DHT22;12351;52.284;9.160;2024-01-27T00:10:05;5.50;99.90
24207;DHT22;12351;52.284;9.160;2024-01-27T00:12:53;5.50;99.90
24207;DHT22;12351;52.284;9.160;2024-01-27T00:15:40;5.50;99.90
24207;DHT22;12351;52.284;9.160;2024-01-27T00:18:28;5.40;99.90
24207;DHT22;12351;52.284;9.160;2024-01-27T00:21:15;5.40;99.90
24207;DHT22;12351;52.284;9.160;2024-01-27T00:24:02;5.40;99.90
24207;DHT22;12351;52.284;9.160;2024-01-27T00:26:49;5.40;99.90
24207;DHT22;12351;52.284;9.160;2024-01-27T00:29:36;5.40;99.90
24207;DHT22;12351;52.284;9.160;2024-01-27T00:32:24;5.30;99.90
24207;DHT22;12351;52.284;9.160;2024-01-27T00:35:11;5.30;99.90
24207;DHT22;12351;52.284;9.160;2024-01-27T00:37:59;5.20;99.90
24207;DHT22;12351;52.284;9.160;2024-01-27T00:40:46;5.20;99.90
24207;DHT22;12351;52.284;9.160;2024-01-27T00:43:33;5.20;99.90
24207;DHT22;12351;52.284;9.160;2024-01-27T00:46:20;5.20;99.90
24207;DHT22;12351;52.284;9.160;2024-01-27T00:49:07;5.10;99.90
24207;DHT22;12351;52.284;9.160;2024-01-27T00:51:54;5.20;99.90
24207;DHT22;12351;52.284;9.160;2024-01-27T00:54:41;5.10;99.90
24207;DHT22;12351;52.284;9.160;2024-01-27T00:57:28;5.10;99.90
24207;DHT22;12351;52.284;9.160;2024-01-27T01:00:15;5.10;99.90
24207;DHT22;12351;52.284;9.160;2024-01-27T01:03:04;5.00;99.90
24207;DHT22;12351;52.284;9.160;2024-01-27T01:05:51;5.00;99.90
24207;DHT22;12351;52.284;9.160;2024-01-27T01:08:38;5.00;99.90
24207;DHT22;12351;52.284;9.160;2024-01-27T01:11:24;5.00;99.90
24207;DHT22;12351;52.284;9.160;2024-01-27T01:14:11;4.90;99.90
24207;DHT22;12351;52.284;9.160;2024-01-27T01:16:58;4.90;99.90
24207;DHT22;12351;52.284;9.160;2024-01-27T01:19:44;4.90;99.90
24207;DHT22;12351;52.284;9.160;2024-01-27T01:22:31;4.90;99.90
24207;DHT22;12351;52.284;9.160;2024-01-27T01:25:18;4.80;99.90
24207;DHT22;12351;52.284;9.160;2024-01-27T01:30:55;4.80;99.90
24207;DHT22;12351;52.284;9.160;2024-01-27T01:33:42;4.80;99.90
24207;DHT22;12351;52.284;9.160;2024-01-27T01:36:29;4.70;99.90
24207;DHT22;12351;52.284;9.160;2024-01-27T01:39:15;4.70;99.90
24207;DHT22;12351;52.284;9.160;2024-01-27T01:42:01;4.70;99.90
24207;DHT22;12351;52.284;9.160;2024-01-27T01:44:48;4.70;99.90
24207;DHT22;12351;52.284;9.160;2024-01-27T01:47:35;4.70;99.90
24207;DHT22;12351;52.284;9.160;2024-01-27T01:50:22;4.70;99.90
24207;DHT22;12351;52.284;9.160;2024-01-27T01:53:08;4.60;99.90
24207;DHT22;12351;52.284;9.160;2024-01-27T01:55:56;4.60;99.90
24207;DHT22;12351;52.284;9.160;2024-01-27T01:58:43;4.60;99.90
24207;DHT22;12351;52.284;9.160;2024-01-27T02:01:32;4.60;99.90
24207;DHT22;12351;52.284;9.160;2024-01-27T02:04:19;4.60;99.90
24207;DHT22;12351;52.284;9.160;2024-01-27T02:07:05;4.50;99.90
24207;DHT22;12351;52.284;9.160;2024-01-27T02:09:52;4.60;99.90
24207;DHT22;12351;52.284;9.160;2024-01-27T02:12:38;4.60;99.90
24207;DHT22;12351;52.284;9.160;2024-01-27T02:15:24;4.50;99.90
24207;DHT22;12351;52.284;9.160;2024-01-27T02:18:11;4.50;99.90
24207;DHT22;12351;52.284;9.160;2024-01-27T02:20:58;4.50;99.90
24207;DHT22;12351;52.284;9.160;2024-01-27T02:23:44;4.50;99.90
24207;DHT22;12351;52.284;9.160;2024-01-27T02:26:30;4.40;99.90
24207;DHT22;12351;52.284;9.160;2024-01-27T02:29:17;4.50;99.90
24207;DHT22;12351;52.284;9.160;2024-01-27T02:32:05;4.50;99.90
24207;DHT22;12351;52.284;9.160;2024-01-27T02:34:51;4.40;99.90
24207;DHT22;12351;52.284;9.160;2024-01-27T02:37:38;4.40;99.90
24207;DHT22;12351;52.284;9.160;2024-01-27T02:40:24;4.40;99.90
24207;DHT22;12351;52.284;9.160;2024-01-27T02:43:11;4.40;99.90
24207;DHT22;12351;52.284;9.160;2024-01-27T02:45:57;4.40;99.90
24207;DHT22;12351;52.284;9.160;2024-01-27T02:48:44;4.40;99.90
24207;DHT22;12351;52.284;9.160;2024-01-27T02:51:31;4.30;99.90
24207;DHT22;12351;52.284;9.160;2024-01-27T02:54:18;4.40;99.90
24207;DHT22;12351;52.284;9.160;2024-01-27T02:57:04;4.30;99.90
24207;DHT22;12351;52.284;9.160;2024-01-27T02:59:51;4.30;99.90
24207;DHT22;12351;52.284;9.160;2024-01-27T03:02:37;4.30;99.90
24207;DHT22;12351;52.284;9.160;2024-01-27T03:05:24;4.30;99.90
24207;DHT22;12351;52.284;9.160;2024-01-27T03:08:10;4.30;99.90
24207;DHT22;12351;52.284;9.160;2024-01-27T03:10:57;4.30;99.90
24207;DHT22;12351;52.284;9.160;2024-01-27T03:13:44;4.20;99.90
24207;DHT22;12351;52.284;9.160;2024-01-27T03:16:31;4.20;99.90
24207;DHT22;12351;52.284;9.160;2024-01-27T03:19:17;4.20;99.90
24207;DHT22;12351;52.284;9.160;2024-01-27T03:22:04;4.20;99.90
24207;DHT22;12351;52.284;9.160;2024-01-27T03:24:50;4.20;99.90
24207;DHT22;12351;52.284;9.160;2024-01-27T03:27:38;4.20;99.90
24207;DHT22;12351;52.284;9.160;2024-01-27T03:30:25;4.10;99.90
24207;DHT22;12351;52.284;9.160;2024-01-27T03:33:12;4.10;99.90
24207;DHT22;12351;52.284;9.160;2024-01-27T03:35:59;4.10;99.90
24207;DHT22;12351;52.284;9.160;2024-01-27T03:38:45;4.10;99.90
24207;DHT22;12351;52.284;9.160;2024-01-27T03:41:32;4.10;99.90
24207;DHT22;12351;52.284;9.160;2024-01-27T03:44:18;4.00;99.90
24207;DHT22;12351;52.284;9.160;2024-01-27T03:47:04;4.00;99.90
24207;DHT22;12351;52.284;9.160;2024-01-27T03:49:51;4.00;99.90
24207;DHT22;12351;52.284;9.160;2024-01-27T03:52:38;4.00;99.90
24207;DHT22;12351;52.284;9.160;2024-01-27T03:55:24;4.00;99.90
24207;DHT22;12351;52.284;9.160;2024-01-27T03:58:12;4.00;99.90
24207;DHT22;12351;52.284;9.160;2024-01-27T04:00:59;3.90;99.90
24207;DHT22;12351;52.284;9.160;2024-01-27T04:03:46;3.90;99.90
24207;DHT22;12351;52.284;9.160;2024-01-27T04:06:35;3.90;99.90
24207;DHT22;12351;52.284;9.160;2024-01-27T04:09:21;3.90;99.90
24207;DHT22;12351;52.284;9.160;2024-01-27T04:12:08;3.90;99.90
24207;DHT22;12351;52.284;9.160;2024-01-27T04:14:56;3.90;99.90
24207;DHT22;12351;52.284;9.160;2024-01-27T04:17:43;3.80;99.90
24207;DHT22;12351;52.284;9.160;2024-01-27T04:20:29;3.80;99.90
24207;DHT22;12351;52.284;9.160;2024-01-27T04:23:16;3.80;99.90
24207;DHT22;12351;52.284;9.160;2024-01-27T04:26:02;3.80;99.90
24207;DHT22;12351;52.284;9.160;2024-01-27T04:28:51;3.80;99.90
24207;DHT22;12351;52.284;9.160;2024-01-27T04:31:39;3.80;99.90
24207;DHT22;12351;52.284;9.160;2024-01-27T04:34:26;3.80;99.90
24207;DHT22;12351;52.284;9.160;2024-01-27T04:37:13;3.80;99.90
24207;DHT22;12351;52.284;9.160;2024-01-27T04:40:00;3.70;99.90
24207;DHT22;12351;52.284;9.160;2024-01-27T04:42:46;3.70;99.90
24207;DHT22;12351;52.284;9.160;2024-01-27T04:45:33;3.70;99.90
24207;DHT22;12351;52.284;9.160;2024-01-27T04:48:21;3.70;99.90
24207;DHT22;12351;52.284;9.160;2024-01-27T04:51:07;3.70;99.90
24207;DHT22;12351;52.284;9.160;2024-01-27T04:53:54;3.70;99.90
24207;DHT22;12351;52.284;9.160;2024-01-27T04:56:41;3.70;99.90
24207;DHT22;12351;52.284;9.160;2024-01-27T04:59:28;3.60;99.90
24207;DHT22;12351;52.284;9.160;2024-01-27T05:02:14;3.60;99.90
24207;DHT22;12351;52.284;9.160;2024-01-27T05:05:02;3.60;99.90
24207;DHT22;12351;52.284;9.160;2024-01-27T05:07:48;3.60;99.90
24207;DHT22;12351;52.284;9.160;2024-01-27T05:10:36;3.60;99.90
24207;DHT22;12351;52.284;9.160;2024-01-27T05:13:23;3.60;99.90
24207;DHT22;12351;52.284;9.160;2024-01-27T05:16:09;3.60;99.90
24207;DHT22;12351;52.284;9.160;2024-01-27T05:18:56;3.60;99.90
24207;DHT22;12351;52.284;9.160;2024-01-27T05:21:42;3.60;99.90
24207;DHT22;12351;52.284;9.160;2024-01-27T05:24:29;3.50;99.90
24207;DHT22;12351;52.284;9.160;2024-01-27T05:27:16;3.60;99.90
24207;DHT22;12351;52.284;9.160;2024-01-27T05:30:03;3.50;99.90
24207;DHT22;12351;52.284;9.160;2024-01-27T05:32:50;3.50;99.90
24207;DHT22;12351;52.284;9.160;2024-01-27T05:35:37;3.50;99.90
24207;DHT22;12351;52.284;9.160;2024-01-27T05:38:24;3.50;99.90
24207;DHT22;12351;52.284;9.160;2024-01-27T05:41:11;3.50;99.90
24207;DHT22;12351;52.284;9.160;2024-01-27T05:44:01;3.50;99.90
24207;DHT22;12351;52.284;9.160;2024-01-27T05:46:47;3.50;99.90
24207;DHT22;12351;52.284;9.160;2024-01-27T05:49:34;3.50;99.90
24207;DHT22;12351;52.284;9.160;2024-01-27T05:52:21;3.50;99.90
24207;DHT22;12351;52.284;9.160;2024-01-27T05:55:10;3.40;99.90
24207;DHT22;12351;52.284;9.160;2024-01-27T05:57:58;3.50;99.90
24207;DHT22;12351;52.284;9.160;2024-01-27T06:00:45;3.40;99.90
24207;DHT22;12351;52.284;9.160;2024-01-27T06:03:32;3.40;99.90
24207;DHT22;12351;52.284;9.160;2024-01-27T06:06:18;3.40;99.90
24207;DHT22;12351;52.284;9.160;2024-01-27T06:09:06;3.40;99.90
24207;DHT22;12351;52.284;9.160;2024-01-27T06:11:54;3.40;99.90
24207;DHT22;12351;52.284;9.160;2024-01-27T06:14:42;3.40;99.90
24207;DHT22;12351;52.284;9.160;2024-01-27T06:17:28;3.40;99.90
24207;DHT22;12351;52.284;9.160;2024-01-27T06:20:15;3.40;99.90
24207;DHT22;12351;52.284;9.160;2024-01-27T06:23:03;3.40;99.90
24207;DHT22;12351;52.284;9.160;2024-01-27T06:25:51;3.40;99.90
24207;DHT22;12351;52.284;9.160;2024-01-27T06:28:37;3.40;99.90
24207;DHT22;12351;52.284;9.160;2024-01-27T06:31:24;3.30;99.90
24207;DHT22;12351;52.284;9.160;2024-01-27T06:34:10;3.40;99.90
24207;DHT22;12351;52.284;9.160;2024-01-27T06:36:58;3.30;99.90
24207;DHT22;12351;52.284;9.160;2024-01-27T06:39:45;3.30;99.90
24207;DHT22;12351;52.284;9.160;2024-01-27T06:42:32;3.30;99.90
24207;DHT22;12351;52.284;9.160;2024-01-27T06:45:18;3.30;99.90
24207;DHT22;12351;52.284;9.160;2024-01-27T06:48:06;3.30;99.90
24207;DHT22;12351;52.284;9.160;2024-01-27T06:50:52;3.30;99.90
24207;DHT22;12351;52.284;9.160;2024-01-27T06:53:41;3.30;99.90
24207;DHT22;12351;52.284;9.160;2024-01-27T06:56:30;3.30;99.90
24207;DHT22;12351;52.284;9.160;2024-01-27T06:59:16;3.30;99.90
24207;DHT22;12351;52.284;9.160;2024-01-27T07:02:02;3.30;99.90
24207;DHT22;12351;52.284;9.160;2024-01-27T07:04:49;3.30;99.90
24207;DHT22;12351;52.284;9.160;2024-01-27T07:07:36;3.30;99.90
24207;DHT22;12351;52.284;9.160;2024-01-27T07:10:23;3.30;99.90
24207;DHT22;12351;52.284;9.160;2024-01-27T07:15:58;3.30;99.90
24207;DHT22;12351;52.284;9.160;2024-01-27T07:18:45;3.30;99.90
24207;DHT22;12351;52.284;9.160;2024-01-27T07:21:31;3.30;99.90
24207;DHT22;12351;52.284;9.160;2024-01-27T07:24:18;3.30;99.90
24207;DHT22;12351;52.284;9.160;2024-01-27T07:27:05;3.20;99.90
24207;DHT22;12351;52.284;9.160;2024-01-27T07:29:54;3.20;99.90
24207;DHT22;12351;52.284;9.160;2024-01-27T07:35:27;3.30;99.90
24207;DHT22;12351;52.284;9.160;2024-01-27T07:38:14;3.30;99.90
24207;DHT22;12351;52.284;9.160;2024-01-27T07:41:01;3.30;99.90
24207;DHT22;12351;52.284;9.160;2024-01-27T07:43:47;3.30;99.90
24207;DHT22;12351;52.284;9.160;2024-01-27T07:46:34;3.30;99.90
24207;DHT22;12351;52.284;9.160;2024-01-27T07:49:20;3.30;99.90
24207;DHT22;12351;52.284;9.160;2024-01-27T07:52:07;3.30;99.90
24207;DHT22;12351;52.284;9.160;2024-01-27T07:54:54;3.30;99.90
24207;DHT22;12351;52.284;9.160;2024-01-27T07:57:41;3.30;99.90
24207;DHT22;12351;52.284;9.160;2024-01-27T08:00:27;3.30;99.90
24207;DHT22;12351;52.284;9.160;2024-01-27T08:03:14;3.30;99.90
24207;DHT22;12351;52.284;9.160;2024-01-27T08:06:05;3.30;99.90
24207;DHT22;12351;52.284;9.160;2024-01-27T08:08:53;3.30;99.90
24207;DHT22;12351;52.284;9.160;2024-01-27T08:11:40;3.30;99.90
24207;DHT22;12351;52.284;9.160;2024-01-27T08:14:26;3.30;99.90
24207;DHT22;12351;52.284;9.160;2024-01-27T08:17:16;3.30;99.90
24207;DHT22;12351;52.284;9.160;2024-01-27T08:20:03;3.30;99.90
24207;DHT22;12351;52.284;9.160;2024-01-27T08:22:49;3.30;99.90
24207;DHT22;12351;52.284;9.160;2024-01-27T08:25:37;3.30;99.90
24207;DHT22;12351;52.284;9.160;2024-01-27T08:28:24;3.30;99.90
24207;DHT22;12351;52.284;9.160;2024-01-27T08:31:11;3.30;99.90
24207;DHT22;12351;52.284;9.160;2024-01-27T08:33:57;3.30;99.90
24207;DHT22;12351;52.284;9.160;2024-01-27T08:36:44;3.30;99.90
24207;DHT22;12351;52.284;9.160;2024-01-27T08:39:31;3.30;99.90
24207;DHT22;12351;52.284;9.160;2024-01-27T08:42:18;3.30;99.90
24207;DHT22;12351;52.284;9.160;2024-01-27T08:45:06;3.30;99.90
24207;DHT22;12351;52.284;9.160;2024-01-27T08:47:56;3.40;99.90
24207;DHT22;12351;52.284;9.160;2024-01-27T08:50:42;3.40;99.90
24207;DHT22;12351;52.284;9.160;2024-01-27T08:53:29;3.40;99.90
24207;DHT22;12351;52.284;9.160;2024-01-27T08:56:16;3.40;99.90
24207;DHT22;12351;52.284;9.160;2024-01-27T08:59:02;3.40;99.90
24207;DHT22;12351;52.284;9.160;2024-01-27T09:01:50;3.40;99.90
24207;DHT22;12351;52.284;9.160;2024-01-27T09:07:25;3.40;99.90
24207;DHT22;12351;52.284;9.160;2024-01-27T09:10:11;3.40;99.90
24207;DHT22;12351;52.284;9.160;2024-01-27T09:12:59;3.40;99.90
24207;DHT22;12351;52.284;9.160;2024-01-27T09:15:46;3.50;99.90
24207;DHT22;12351;52.284;9.160;2024-01-27T09:18:33;3.50;99.90
24207;DHT22;12351;52.284;9.160;2024-01-27T09:21:23;3.50;99.90
24207;DHT22;12351;52.284;9.160;2024-01-27T09:24:11;3.50;99.90
24207;DHT22;12351;52.284;9.160;2024-01-27T09:27:03;3.50;99.90
24207;DHT22;12351;52.284;9.160;2024-01-27T09:29:47;3.50;99.90
24207;DHT22;12351;52.284;9.160;2024-01-27T09:32:36;3.50;99.90
24207;DHT22;12351;52.284;9.160;2024-01-27T09:35:23;3.50;99.90
24207;DHT22;12351;52.284;9.160;2024-01-27T09:38:10;3.50;99.90
24207;DHT22;12351;52.284;9.160;2024-01-27T09:40:58;3.60;99.90
24207;DHT22;12351;52.284;9.160;2024-01-27T09:43:45;3.60;99.90
24207;DHT22;12351;52.284;9.160;2024-01-27T09:46:34;3.60;99.90
24207;DHT22;12351;52.284;9.160;2024-01-27T09:49:20;3.60;99.90
24207;DHT22;12351;52.284;9.160;2024-01-27T09:52:08;3.60;99.90
24207;DHT22;12351;52.284;9.160;2024-01-27T09:54:54;3.60;99.90
24207;DHT22;12351;52.284;9.160;2024-01-27T09:57:42;3.60;99.90
24207;DHT22;12351;52.284;9.160;2024-01-27T10:00:29;3.60;99.90
24207;DHT22;12351;52.284;9.160;2024-01-27T10:03:17;3.70;99.90
24207;DHT22;12351;52.284;9.160;2024-01-27T10:06:09;3.70;99.90
24207;DHT22;12351;52.284;9.160;2024-01-27T10:08:56;3.70;99.90
24207;DHT22;12351;52.284;9.160;2024-01-27T10:11:47;3.70;99.90
24207;DHT22;12351;52.284;9.160;2024-01-27T10:17:24;3.70;99.90
24207;DHT22;12351;52.284;9.160;2024-01-27T10:20:12;3.80;99.90
24207;DHT22;12351;52.284;9.160;2024-01-27T10:25:50;3.90;99.90
24207;DHT22;12351;52.284;9.160;2024-01-27T10:28:37;3.90;99.90
24207;DHT22;12351;52.284;9.160;2024-01-27T10:31:26;3.90;99.90
24207;DHT22;12351;52.284;9.160;2024-01-27T10:34:12;4.00;99.90
24207;DHT22;12351;52.284;9.160;2024-01-27T10:37:00;4.00;99.90
24207;DHT22;12351;52.284;9.160;2024-01-27T10:39:47;4.10;99.90
24207;DHT22;12351;52.284;9.160;2024-01-27T10:42:36;4.10;99.90
24207;DHT22;12351;52.284;9.160;2024-01-27T10:45:23;4.20;99.90
24207;DHT22;12351;52.284;9.160;2024-01-27T10:48:10;4.20;99.90
24207;DHT22;12351;52.284;9.160;2024-01-27T10:50:58;4.30;99.90
24207;DHT22;12351;52.284;9.160;2024-01-27T10:53:48;4.30;99.90
24207;DHT22;12351;52.284;9.160;2024-01-27T10:56:36;4.40;99.90
24207;DHT22;12351;52.284;9.160;2024-01-27T10:59:26;4.40;99.90
24207;DHT22;12351;52.284;9.160;2024-01-27T11:02:14;4.40;99.90
24207;DHT22;12351;52.284;9.160;2024-01-27T11:05:03;4.40;99.90
24207;DHT22;12351;52.284;9.160;2024-01-27T11:07:52;4.50;99.90
24207;DHT22;12351;52.284;9.160;2024-01-27T11:10:39;4.50;99.90
24207;DHT22;12351;52.284;9.160;2024-01-27T11:13:28;4.60;99.90
24207;DHT22;12351;52.284;9.160;2024-01-27T11:16:16;4.60;99.90
24207;DHT22;12351;52.284;9.160;2024-01-27T11:19:03;4.70;99.90
24207;DHT22;12351;52.284;9.160;2024-01-27T11:24:39;4.70;99.90
24207;DHT22;12351;52.284;9.160;2024-01-27T11:27:27;4.80;99.90
24207;DHT22;12351;52.284;9.160;2024-01-27T11:33:05;4.90;99.90
24207;DHT22;12351;52.284;9.160;2024-01-27T11:38:43;5.00;99.90
24207;DHT22;12351;52.284;9.160;2024-01-27T11:41:30;5.00;99.90
24207;DHT22;12351;52.284;9.160;2024-01-27T11:44:17;5.10;99.90
24207;DHT22;12351;52.284;9.160;2024-01-27T11:47:05;5.10;99.90
24207;DHT22;12351;52.284;9.160;2024-01-27T11:49:54;5.20;99.90
24207;DHT22;12351;52.284;9.160;2024-01-27T11:52:43;5.30;99.90
24207;DHT22;12351;52.284;9.160;2024-01-27T11:55:31;5.30;99.90
24207;DHT22;12351;52.284;9.160;2024-01-27T11:58:18;5.30;99.90
24207;DHT22;12351;52.284;9.160;2024-01-27T12:01:05;5.40;99.90
24207;DHT22;12351;52.284;9.160;2024-01-27T12:03:52;5.40;99.90
24207;DHT22;12351;52.284;9.160;2024-01-27T12:06:39;5.50;99.90
24207;DHT22;12351;52.284;9.160;2024-01-27T12:09:27;5.50;99.90
24207;DHT22;12351;52.284;9.160;2024-01-27T12:12:16;5.50;99.90
24207;DHT22;12351;52.284;9.160;2024-01-27T12:15:04;5.60;99.90
24207;DHT22;12351;52.284;9.160;2024-01-27T12:17:52;5.70;99.90
24207;DHT22;12351;52.284;9.160;2024-01-27T12:20:40;5.70;99.90
24207;DHT22;12351;52.284;9.160;2024-01-27T12:23:27;5.80;99.90
24207;DHT22;12351;52.284;9.160;2024-01-27T12:26:15;5.80;99.90
24207;DHT22;12351;52.284;9.160;2024-01-27T12:29:02;5.90;99.90
24207;DHT22;12351;52.284;9.160;2024-01-27T12:31:50;5.90;99.90
24207;DHT22;12351;52.284;9.160;2024-01-27T12:34:40;6.00;99.90
24207;DHT22;12351;52.284;9.160;2024-01-27T12:37:31;6.00;99.90
24207;DHT22;12351;52.284;9.160;2024-01-27T12:40:20;6.10;99.90
24207;DHT22;12351;52.284;9.160;2024-01-27T12:43:07;6.20;99.90
24207;DHT22;12351;52.284;9.160;2024-01-27T12:45:55;6.20;99.90
24207;DHT22;12351;52.284;9.160;2024-01-27T12:48:43;6.30;99.90
24207;DHT22;12351;52.284;9.160;2024-01-27T12:51:31;6.30;99.90
24207;DHT22;12351;52.284;9.160;2024-01-27T12:54:18;6.40;99.90
24207;DHT22;12351;52.284;9.160;2024-01-27T12:57:06;6.50;99.90
24207;DHT22;12351;52.284;9.160;2024-01-27T12:59:54;6.50;99.90
24207;DHT22;12351;52.284;9.160;2024-01-27T13:02:42;6.60;99.90
24207;DHT22;12351;52.284;9.160;2024-01-27T13:05:30;6.70;99.90
24207;DHT22;12351;52.284;9.160;2024-01-27T13:08:17;6.70;99.90
24207;DHT22;12351;52.284;9.160;2024-01-27T13:11:05;6.70;99.90
24207;DHT22;12351;52.284;9.160;2024-01-27T13:13:55;6.80;99.90
24207;DHT22;12351;52.284;9.160;2024-01-27T13:19:30;6.80;99.90
24207;DHT22;12351;52.284;9.160;2024-01-27T13:22:18;6.90;99.90
24207;DHT22;12351;52.284;9.160;2024-01-27T13:25:06;6.90;99.90
24207;DHT22;12351;52.284;9.160;2024-01-27T13:27:54;7.00;99.90
24207;DHT22;12351;52.284;9.160;2024-01-27T13:30:41;7.00;99.90
24207;DHT22;12351;52.284;9.160;2024-01-27T13:33:29;7.00;99.90
24207;DHT22;12351;52.284;9.160;2024-01-27T13:36:19;7.00;99.90
24207;DHT22;12351;52.284;9.160;2024-01-27T13:39:05;7.00;99.90
24207;DHT22;12351;52.284;9.160;2024-01-27T13:41:52;7.10;99.90
24207;DHT22;12351;52.284;9.160;2024-01-27T13:44:39;7.10;99.90
24207;DHT22;12351;52.284;9.160;2024-01-27T13:47:27;7.10;99.90
24207;DHT22;12351;52.284;9.160;2024-01-27T13:50:14;7.20;99.90
24207;DHT22;12351;52.284;9.160;2024-01-27T13:53:01;7.20;99.90
24207;DHT22;12351;52.284;9.160;2024-01-27T13:55:50;7.20;99.90
24207;DHT22;12351;52.284;9.160;2024-01-27T13:58:37;7.20;99.90
24207;DHT22;12351;52.284;9.160;2024-01-27T14:01:24;7.20;99.90
24207;DHT22;12351;52.284;9.160;2024-01-27T14:04:12;7.20;99.90
24207;DHT22;12351;52.284;9.160;2024-01-27T14:06:59;7.20;99.90
24207;DHT22;12351;52.284;9.160;2024-01-27T14:09:48;7.30;99.90
24207;DHT22;12351;52.284;9.160;2024-01-27T14:12:35;7.30;99.90
24207;DHT22;12351;52.284;9.160;2024-01-27T14:15:22;7.30;99.90
24207;DHT22;12351;52.284;9.160;2024-01-27T14:18:09;7.30;99.90
24207;DHT22;12351;52.284;9.160;2024-01-27T14:20:58;7.30;99.90
24207;DHT22;12351;52.284;9.160;2024-01-27T14:23:45;7.30;99.90
24207;DHT22;12351;52.284;9.160;2024-01-27T14:26:33;7.30;99.90
24207;DHT22;12351;52.284;9.160;2024-01-27T14:29:21;7.30;99.90
24207;DHT22;12351;52.284;9.160;2024-01-27T14:32:08;7.30;99.90
24207;DHT22;12351;52.284;9.160;2024-01-27T14:34:55;7.30;99.90
24207;DHT22;12351;52.284;9.160;2024-01-27T14:37:42;7.30;99.90
24207;DHT22;12351;52.284;9.160;2024-01-27T14:40:30;7.30;99.90
24207;DHT22;12351;52.284;9.160;2024-01-27T14:43:18;7.30;99.90
24207;DHT22;12351;52.284;9.160;2024-01-27T14:46:06;7.20;99.90
24207;DHT22;12351;52.284;9.160;2024-01-27T14:48:53;7.20;99.90
24207;DHT22;12351;52.284;9.160;2024-01-27T14:51:40;7.20;99.90
24207;DHT22;12351;52.284;9.160;2024-01-27T14:54:27;7.20;99.90
24207;DHT22;12351;52.284;9.160;2024-01-27T14:57:14;7.10;99.90
24207;DHT22;12351;52.284;9.160;2024-01-27T15:00:02;7.10;99.90
24207;DHT22;12351;52.284;9.160;2024-01-27T15:02:50;7.00;99.90
24207;DHT22;12351;52.284;9.160;2024-01-27T15:05:38;7.00;99.90
24207;DHT22;12351;52.284;9.160;2024-01-27T15:08:27;7.00;99.90
24207;DHT22;12351;52.284;9.160;2024-01-27T15:11:15;7.00;99.90
24207;DHT22;12351;52.284;9.160;2024-01-27T15:14:02;6.90;99.90
24207;DHT22;12351;52.284;9.160;2024-01-27T15:16:51;6.90;99.90
24207;DHT22;12351;52.284;9.160;2024-01-27T15:19:39;6.90;99.90
24207;DHT22;12351;52.284;9.160;2024-01-27T15:22:26;6.80;99.90
24207;DHT22;12351;52.284;9.160;2024-01-27T15:25:13;6.80;99.90
24207;DHT22;12351;52.284;9.160;2024-01-27T15:28:01;6.80;99.90
24207;DHT22;12351;52.284;9.160;2024-01-27T15:30:50;6.70;99.90
24207;DHT22;12351;52.284;9.160;2024-01-27T15:33:37;6.70;99.90
24207;DHT22;12351;52.284;9.160;2024-01-27T15:36:25;6.60;99.90
24207;DHT22;12351;52.284;9.160;2024-01-27T15:39:12;6.60;99.90
24207;DHT22;12351;52.284;9.160;2024-01-27T15:41:59;6.60;99.90
24207;DHT22;12351;52.284;9.160;2024-01-27T15:44:47;6.50;99.90
24207;DHT22;12351;52.284;9.160;2024-01-27T15:47:35;6.50;99.90
24207;DHT22;12351;52.284;9.160;2024-01-27T15:50:22;6.40;99.90
24207;DHT22;12351;52.284;9.160;2024-01-27T15:53:11;6.40;99.90
24207;DHT22;12351;52.284;9.160;2024-01-27T15:55:58;6.30;99.90
24207;DHT22;12351;52.284;9.160;2024-01-27T15:58:45;6.40;99.90
24207;DHT22;12351;52.284;9.160;2024-01-27T16:01:32;6.30;99.90
24207;DHT22;12351;52.284;9.160;2024-01-27T16:04:19;6.30;99.90
24207;DHT22;12351;52.284;9.160;2024-01-27T16:07:07;6.20;99.90
24207;DHT22;12351;52.284;9.160;2024-01-27T16:09:54;6.20;99.90
24207;DHT22;12351;52.284;9.160;2024-01-27T16:12:43;6.10;99.90
24207;DHT22;12351;52.284;9.160;2024-01-27T16:15:31;6.10;99.90
24207;DHT22;12351;52.284;9.160;2024-01-27T16:18:18;6.10;99.90
24207;DHT22;12351;52.284;9.160;2024-01-27T16:21:05;6.00;99.90
24207;DHT22;12351;52.284;9.160;2024-01-27T16:23:53;6.00;99.90
24207;DHT22;12351;52.284;9.160;2024-01-27T16:26:40;5.90;99.90
24207;DHT22;12351;52.284;9.160;2024-01-27T16:29:28;6.00;99.90
24207;DHT22;12351;52.284;9.160;2024-01-27T16:32:15;5.90;99.90
24207;DHT22;12351;52.284;9.160;2024-01-27T16:35:04;5.90;99.90
24207;DHT22;12351;52.284;9.160;2024-01-27T16:37:52;5.80;99.90
24207;DHT22;12351;52.284;9.160;2024-01-27T16:40:39;5.80;99.90
24207;DHT22;12351;52.284;9.160;2024-01-27T16:43:26;5.80;99.90
24207;DHT22;12351;52.284;9.160;2024-01-27T16:46:14;5.80;99.90
24207;DHT22;12351;52.284;9.160;2024-01-27T16:49:01;5.70;99.90
24207;DHT22;12351;52.284;9.160;2024-01-27T16:51:49;5.70;99.90
24207;DHT22;12351;52.284;9.160;2024-01-27T16:54:36;5.60;99.90
24207;DHT22;12351;52.284;9.160;2024-01-27T16:57:25;5.60;99.90
24207;DHT22;12351;52.284;9.160;2024-01-27T17:00:14;5.60;99.90
24207;DHT22;12351;52.284;9.160;2024-01-27T17:03:02;5.60;99.90
24207;DHT22;12351;52.284;9.160;2024-01-27T17:05:49;5.50;99.90
24207;DHT22;12351;52.284;9.160;2024-01-27T17:08:36;5.50;99.90
24207;DHT22;12351;52.284;9.160;2024-01-27T17:11:23;5.50;99.90
24207;DHT22;12351;52.284;9.160;2024-01-27T17:14:12;5.40;99.90
24207;DHT22;12351;52.284;9.160;2024-01-27T17:17:00;5.40;99.90
24207;DHT22;12351;52.284;9.160;2024-01-27T17:19:47;5.40;99.90
24207;DHT22;12351;52.284;9.160;2024-01-27T17:22:35;5.40;99.90
24207;DHT22;12351;52.284;9.160;2024-01-27T17:25:22;5.30;99.90
24207;DHT22;12351;52.284;9.160;2024-01-27T17:28:09;5.30;99.90
24207;DHT22;12351;52.284;9.160;2024-01-27T17:30:56;5.30;99.90
24207;DHT22;12351;52.284;9.160;2024-01-27T17:33:43;5.30;99.90
24207;DHT22;12351;52.284;9.160;2024-01-27T17:36:30;5.20;99.90
24207;DHT22;12351;52.284;9.160;2024-01-27T17:39:17;5.20;99.90
24207;DHT22;12351;52.284;9.160;2024-01-27T17:42:06;5.20;99.90
24207;DHT22;12351;52.284;9.160;2024-01-27T17:44:54;5.20;99.90
24207;DHT22;12351;52.284;9.160;2024-01-27T17:47:42;5.20;99.90
24207;DHT22;12351;52.284;9.160;2024-01-27T17:50:30;5.10;99.90
24207;DHT22;12351;52.284;9.160;2024-01-27T17:53:17;5.10;99.90
24207;DHT22;12351;52.284;9.160;2024-01-27T17:56:04;5.10;99.90
24207;DHT22;12351;52.284;9.160;2024-01-27T17:58:51;5.10;99.90
24207;DHT22;12351;52.284;9.160;2024-01-27T18:01:39;5.10;99.90
24207;DHT22;12351;52.284;9.160;2024-01-27T18:04:26;5.00;99.90
24207;DHT22;12351;52.284;9.160;2024-01-27T18:07:14;5.00;99.90
24207;DHT22;12351;52.284;9.160;2024-01-27T18:10:01;5.00;99.90
24207;DHT22;12351;52.284;9.160;2024-01-27T18:12:48;5.00;99.90
24207;DHT22;12351;52.284;9.160;2024-01-27T18:15:35;5.00;99.90
24207;DHT22;12351;52.284;9.160;2024-01-27T18:18:22;4.90;99.90
24207;DHT22;12351;52.284;9.160;2024-01-27T18:21:10;4.90;99.90